Impacts METAR Board
IDs:

KCVG - Cincinnati Intl, KY, US

Updated at: 2300 UTC 01 Mar 2021
Potential Impact None Slight Moderate High
Time 01/11Z 01/12Z 01/13Z 01/14Z 01/15Z 01/16Z 01/17Z 01/18Z 01/19Z 01/20Z 01/21Z 01/22Z 01/23Z
Temp39 37 37 37 37 40 40 43 44 45 45 43 43
Dewpt32 31 30 30 30 31 28 27 25 22 23 22 20
Altim30.00 30.02 30.05 30.10 30.12 30.10 30.13 30.18 30.15 30.16 30.19 30.20 30.20
VIS10 9 8 9 9 10 10 10 10 10 10 10 10
CIG18 220 17 250 250 240 250 300 300 -- 300 280 --
CoverOVCOVCOVCBKNBKNBKNBKNBKNBKNSCTBKNBKNFEW
FltCatMVFRVFRMVFRVFRVFRVFRVFRVFRVFRVFRVFRVFRVFR
WX--------------------------
WDir320320320320280280310300290290300310310
WSpd9 12 8 10 10 9 13 15 13 18 14 10 11
WGst-- -- -- -- -- -- -- 23 22 26 24 -- --
Raw hourly METARs
KCVG 011052Z 32009KT 10SM BKN018 OVC210 04/00 A3000 RMK AO2 SLP157 T00390000
KCVG 011152Z 32012KT 9SM SCT017 OVC220 03/M01 A3002 RMK AO2 SLP166 SCT V FEW 60000 70159 T00281006 10078 20028 53025
KCVG 011252Z 32008KT 8SM BKN017 OVC230 03/M01 A3005 RMK AO2 SLP177 T00281011
KCVG 011405Z 32010KT 9SM SCT017 BKN250 03/M01 A3010 RMK AO2 T00281011
KCVG 011452Z 28010KT 9SM FEW015 BKN250 03/M01 A3012 RMK AO2 SLP199 T00281011 51033
KCVG 011552Z 28009KT 10SM FEW019 BKN240 04/M01 A3010 RMK AO2 SLP194 T00441006
KCVG 011652Z 31013KT 10SM BKN250 04/M02 A3013 RMK AO2 SLP203 T00441022
KCVG 011752Z 30015G23KT 10SM SCT250 BKN300 06/M03 A3018 RMK AO2 SLP221 T00611028 10067 20028 53020
KCVG 011852Z COR 29013G22KT 10SM FEW250 BKN300 07/M04 A3015 RMK AO2 SLP212 T00671039
KCVG 011952Z 29018G26KT 10SM FEW050 FEW250 SCT300 07/M06 A3016 RMK AO2 PK WND 31026/1946 SLP215 T00721056
KCVG 012052Z 30014G24KT 10SM FEW050 FEW250 BKN300 07/M05 A3019 RMK AO2 PK WND 29026/1953 SLP225 T00721050 53003
KCVG 012152Z 31010KT 10SM FEW050 BKN280 06/M06 A3020 RMK AO2 SLP228 T00611056
KCVG 012252Z 31011KT 10SM FEW050 FEW250 06/M07 A3020 RMK AO2 SLP231 T00611067



Page loaded:  23:32 UTC  |   03:32 PM Pacific  |   04:32 PM Mountain  |   05:32 PM Central  |   06:32 PM Eastern

 

ADVISORIES

FORECASTS

FORECASTS

OBSERVATIONS

USER TOOLS

ABOUT US